Time;durP1;ratioP1;P1;durP2;ratioP2;P2;SDS_P1;SDS_P2;PMS_P1;PMS_P2;Temp;Humidity;BMP_temperature;BMP_pressure;BME280_temperature;BME280_humidity;BME280_pressure;Samples;Min_cycle;Max_cycle;Signal;HPM_P1;HPM_P2
2023/01/21 00:00:44;;;;;;;26.03;14.43;;;-0.50;1.00;;;;;;5011766;28;20183;-89
2023/01/21 00:03:11;;;;;;;22.30;14.18;;;-0.60;1.00;;;;;;5002717;28;20210;-90
2023/01/21 00:05:58;;;;;;;27.67;15.25;;;-0.60;1.00;;;;;;5007490;28;20190;-90
2023/01/21 00:08:35;;;;;;;30.23;17.95;;;-0.60;1.00;;;;;;5009530;28;20390;-89
2023/01/21 00:11:13;;;;;;;28.70;17.30;;;-0.70;1.00;;;;;;5012388;28;20246;-90
2023/01/21 00:13:57;;;;;;;28.88;16.30;;;-0.70;1.00;;;;;;5005083;28;20305;-89
2023/01/21 00:16:28;;;;;;;32.08;17.00;;;-0.80;1.00;;;;;;5008331;28;20244;-89
2023/01/21 00:19:04;;;;;;;32.38;17.95;;;-0.80;1.00;;;;;;5006551;28;20179;-90
2023/01/21 00:21:33;;;;;;;30.85;17.95;;;-0.90;1.00;;;;;;5008215;28;20586;-90
2023/01/21 00:23:59;;;;;;;27.70;16.70;;;-0.90;1.00;;;;;;5007447;28;20286;-89
2023/01/21 00:26:24;;;;;;;31.33;17.00;;;-0.90;1.00;;;;;;5007255;28;20187;-88
2023/01/21 00:28:50;;;;;;;29.67;17.97;;;-0.90;1.00;;;;;;5005149;28;20211;-89
2023/01/21 00:31:15;;;;;;;28.70;17.00;;;-0.90;1.00;;;;;;5006893;28;20236;-89
2023/01/21 00:33:41;;;;;;;32.30;19.57;;;-0.90;1.00;;;;;;5010724;28;20333;-89
2023/01/21 00:36:09;;;;;;;38.23;19.10;;;-0.90;1.00;;;;;;5010899;28;20593;-89
2023/01/21 00:38:35;;;;;;;36.78;20.50;;;-0.90;1.00;;;;;;5010553;28;20183;-90
2023/01/21 00:41:10;;;;;;;38.10;19.70;;;-0.90;1.00;;;;;;5008655;28;20194;-89
2023/01/21 00:43:35;;;;;;;36.83;19.67;;;-0.90;1.00;;;;;;5007928;28;20194;-90
2023/01/21 00:46:01;;;;;;;32.20;19.00;;;-0.90;1.00;;;;;;5008906;28;20174;-89
2023/01/21 00:48:30;;;;;;;37.40;20.70;;;-0.90;1.00;;;;;;5006786;28;20198;-89
2023/01/21 00:50:59;;;;;;;40.42;21.50;;;-0.90;1.00;;;;;;4999006;28;20255;-89
2023/01/21 00:53:25;;;;;;;45.75;22.00;;;-0.90;1.00;;;;;;4996497;28;20202;-88
2023/01/21 00:55:51;;;;;;;37.60;20.25;;;-0.90;1.00;;;;;;5001305;28;20191;-89
2023/01/21 00:58:17;;;;;;;45.83;21.33;;;-0.90;1.00;;;;;;5005470;28;20190;-89
2023/01/21 01:00:42;;;;;;;42.37;23.40;;;-0.90;1.00;;;;;;5007363;28;20179;-89
2023/01/21 01:03:08;;;;;;;38.10;22.33;;;-0.90;1.00;;;;;;5002641;28;20673;-88
2023/01/21 01:05:34;;;;;;;39.50;23.00;;;-0.90;1.00;;;;;;5003588;28;20186;-88
2023/01/21 01:07:59;;;;;;;43.33;21.57;;;-0.90;1.00;;;;;;4998424;28;20458;-88
2023/01/21 01:10:25;;;;;;;40.70;21.37;;;-0.90;1.00;;;;;;5003453;28;20192;-88
2023/01/21 01:12:51;;;;;;;43.53;24.13;;;-0.80;1.00;;;;;;5002069;28;20209;-89
2023/01/21 01:15:19;;;;;;;45.63;21.52;;;-0.80;1.00;;;;;;5008596;28;20257;-88
2023/01/21 01:17:44;;;;;;;48.35;23.45;;;-0.80;1.00;;;;;;5003098;28;20177;-88
2023/01/21 01:20:10;;;;;;;47.40;22.33;;;-0.80;1.00;;;;;;5004087;28;20254;-87
2023/01/21 01:22:36;;;;;;;44.40;21.50;;;-0.90;1.00;;;;;;5005008;28;20238;-88
2023/01/21 01:25:01;;;;;;;45.77;24.20;;;-0.90;1.00;;;;;;5004289;28;20438;-88
2023/01/21 01:27:29;;;;;;;48.80;22.60;;;-0.90;1.00;;;;;;5009927;28;20187;-88
2023/01/21 01:29:54;;;;;;;42.20;22.33;;;-0.90;1.00;;;;;;5000597;28;20187;-88
2023/01/21 01:32:20;;;;;;;39.60;20.57;;;-0.90;1.00;;;;;;5012149;28;20195;-88
2023/01/21 01:34:45;;;;;;;41.23;20.40;;;-0.90;1.00;;;;;;5004468;28;20190;-88
2023/01/21 01:37:11;;;;;;;54.70;23.30;;;-0.90;1.00;;;;;;5010257;28;20878;-88
2023/01/21 01:39:36;;;;;;;37.37;22.73;;;-0.90;1.00;;;;;;5005738;28;20820;-88
2023/01/21 01:42:02;;;;;;;47.67;24.17;;;-0.90;1.00;;;;;;5004871;28;20233;-88
2023/01/21 01:45:01;;;;;;;42.97;23.23;;;-1.00;1.00;;;;;;5004335;28;20180;-88
2023/01/21 01:47:43;;;;;;;42.30;22.13;;;-1.00;1.00;;;;;;5008459;28;20834;-88
2023/01/21 01:50:13;;;;;;;42.13;23.30;;;-1.00;1.00;;;;;;5006457;28;20183;-89
2023/01/21 01:52:40;;;;;;;46.50;22.42;;;-1.00;1.00;;;;;;5004350;28;20273;-88
2023/01/21 01:55:07;;;;;;;44.55;22.90;;;-0.90;1.00;;;;;;5002948;28;20605;-89
2023/01/21 01:57:38;;;;;;;45.25;22.35;;;-0.90;1.00;;;;;;5004541;28;20190;-88
2023/01/21 02:00:06;;;;;;;43.63;24.45;;;-0.90;1.00;;;;;;5005393;28;20183;-88
2023/01/21 02:02:33;;;;;;;45.45;22.75;;;-0.90;1.00;;;;;;5002899;28;20253;-88
2023/01/21 02:05:03;;;;;;;42.00;23.08;;;-0.90;1.00;;;;;;5010505;28;20183;-89
2023/01/21 02:07:38;;;;;;;37.45;21.35;;;-0.90;1.00;;;;;;5007625;28;20390;-89
2023/01/21 02:10:13;;;;;;;40.17;23.25;;;-0.90;1.00;;;;;;5008706;28;20270;-88
2023/01/21 02:12:42;;;;;;;49.35;25.33;;;-0.90;1.00;;;;;;5009080;28;20293;-89
2023/01/21 02:15:08;;;;;;;48.28;23.30;;;-0.90;1.00;;;;;;5013510;28;20237;-89
2023/01/21 02:17:46;;;;;;;46.33;22.80;;;-0.90;1.00;;;;;;5012953;28;20187;-88
2023/01/21 02:21:04;;;;;;;48.05;23.13;;;-0.90;1.00;;;;;;5003530;28;20179;-88
2023/01/21 02:24:05;;;;;;;40.17;22.65;;;-0.90;1.00;;;;;;5009432;28;20217;-89
2023/01/21 02:27:05;;;;;;;40.63;20.23;;;-0.90;1.00;;;;;;4961036;28;20248;-87
2023/01/21 02:29:56;;;;;;;42.80;20.02;;;-0.90;1.00;;;;;;5019462;28;20213;-88
2023/01/21 02:32:40;;;;;;;44.75;21.80;;;-0.90;1.00;;;;;;5010261;28;20247;-88
2023/01/21 02:35:23;;;;;;;36.42;20.92;;;-1.00;1.00;;;;;;5010650;28;20253;-88
2023/01/21 02:38:10;;;;;;;51.13;22.38;;;-1.00;1.00;;;;;;5003807;28;20198;-88
2023/01/21 02:40:57;;;;;;;42.97;22.90;;;-1.00;1.00;;;;;;5009433;28;20190;-88
2023/01/21 02:43:25;;;;;;;38.42;20.13;;;-1.00;1.00;;;;;;5008194;28;20194;-88
2023/01/21 02:45:58;;;;;;;45.58;22.30;;;-1.00;1.00;;;;;;5011740;28;20194;-89
2023/01/21 02:48:36;;;;;;;56.60;23.63;;;-1.00;1.00;;;;;;5003241;28;20234;-89
2023/01/21 02:51:03;;;;;;;45.22;21.40;;;-1.10;1.00;;;;;;5003665;28;20178;-88
2023/01/21 02:53:31;;;;;;;46.15;21.85;;;-1.10;1.00;;;;;;4999464;28;20226;-89
2023/01/21 02:56:03;;;;;;;40.25;21.80;;;-1.10;1.00;;;;;;5001416;28;20180;-88
2023/01/21 02:58:34;;;;;;;39.08;21.13;;;-1.10;1.00;;;;;;5008469;28;20190;-88
2023/01/21 03:01:00;;;;;;;38.85;22.00;;;-1.20;1.00;;;;;;5011216;28;20335;-87
2023/01/21 03:03:35;;;;;;;44.90;22.70;;;-1.20;1.00;;;;;;5010426;28;20312;-88
2023/01/21 03:06:12;;;;;;;37.30;20.75;;;-1.30;1.00;;;;;;5025507;28;20182;-87
2023/01/21 03:08:49;;;;;;;38.13;21.35;;;-1.30;1.00;;;;;;5006745;28;20256;-88
2023/01/21 03:11:18;;;;;;;47.17;21.45;;;-1.30;1.00;;;;;;5003227;28;20718;-88
2023/01/21 03:16:58;;;;;;;41.67;21.80;;;-1.40;1.00;;;;;;5007274;28;20623;-88
2023/01/21 03:19:43;;;;;;;40.13;22.13;;;-1.50;1.00;;;;;;5003840;28;20198;-89
2023/01/21 03:22:13;;;;;;;45.08;22.05;;;-1.50;1.00;;;;;;5008565;28;20360;-88
2023/01/21 03:24:42;;;;;;;41.83;21.73;;;-1.50;1.00;;;;;;5010004;28;20186;-87
2023/01/21 03:27:10;;;;;;;43.60;21.73;;;-1.60;1.00;;;;;;5010918;28;20175;-88
2023/01/21 03:29:40;;;;;;;43.45;24.05;;;-1.50;1.00;;;;;;5006169;28;20704;-88
2023/01/21 03:32:09;;;;;;;44.75;23.52;;;-1.50;1.00;;;;;;4999326;28;20756;-87
2023/01/21 03:34:43;;;;;;;45.25;23.55;;;-1.50;1.00;;;;;;5003833;28;20254;-87
2023/01/21 03:37:23;;;;;;;45.72;24.55;;;-1.50;1.00;;;;;;5009199;28;20183;-87
2023/01/21 03:40:17;;;;;;;41.33;22.20;;;-1.50;1.00;;;;;;5003370;28;20187;-87
2023/01/21 03:42:45;;;;;;;45.55;23.75;;;-1.40;1.00;;;;;;5003529;28;20260;-88
2023/01/21 03:45:12;;;;;;;40.22;22.70;;;-1.40;1.00;;;;;;5003773;28;20675;-86
2023/01/21 03:47:40;;;;;;;52.78;25.60;;;-1.40;1.00;;;;;;5005736;28;20191;-88
2023/01/21 03:50:18;;;;;;;53.58;25.48;;;-1.40;1.00;;;;;;5004822;28;20174;-87
2023/01/21 03:52:45;;;;;;;51.15;25.92;;;-1.40;1.00;;;;;;5002627;28;20676;-87
2023/01/21 03:55:12;;;;;;;49.67;26.52;;;-1.40;1.00;;;;;;5000809;28;20194;-87
2023/01/21 03:57:38;;;;;;;45.38;24.77;;;-1.40;1.00;;;;;;5008241;28;20668;-89
2023/01/21 04:00:05;;;;;;;48.87;23.43;;;-1.40;1.00;;;;;;4998781;28;20261;-87
2023/01/21 04:02:31;;;;;;;42.10;23.00;;;-1.30;1.00;;;;;;5006088;28;20207;-87
2023/01/21 04:04:56;;;;;;;52.00;24.20;;;-1.30;1.00;;;;;;5011142;28;20187;-88
2023/01/21 04:07:22;;;;;;;51.60;26.90;;;-1.30;1.00;;;;;;5011763;28;20195;-86
2023/01/21 04:09:51;;;;;;;43.97;23.43;;;-1.30;1.00;;;;;;5005664;28;20238;-88
2023/01/21 04:12:16;;;;;;;45.60;22.85;;;-1.30;1.00;;;;;;5011488;28;20222;-86
2023/01/21 04:14:42;;;;;;;44.73;23.23;;;-1.30;1.00;;;;;;5008423;28;20654;-86
2023/01/21 04:17:08;;;;;;;46.23;23.40;;;-1.30;1.00;;;;;;5009493;28;20277;-87
2023/01/21 04:19:33;;;;;;;43.73;24.37;;;-1.30;1.00;;;;;;5010801;28;20828;-86
2023/01/21 04:21:59;;;;;;;44.00;23.07;;;-1.30;1.00;;;;;;5011611;28;20621;-86
2023/01/21 04:24:24;;;;;;;46.03;22.63;;;-1.30;1.00;;;;;;5011019;28;20237;-86
2023/01/21 04:26:50;;;;;;;46.40;23.10;;;-1.40;1.00;;;;;;5012365;28;20277;-88
2023/01/21 04:29:16;;;;;;;50.13;25.50;;;-1.40;1.00;;;;;;5011302;28;20209;-86
2023/01/21 04:31:42;;;;;;;45.13;21.37;;;-1.40;1.00;;;;;;5012484;28;20183;-86
2023/01/21 04:34:07;;;;;;;52.57;25.77;;;-1.40;1.00;;;;;;5011039;28;20175;-85
2023/01/21 04:36:33;;;;;;;45.10;24.60;;;-1.40;1.00;;;;;;5014044;28;20944;-87
2023/01/21 04:38:59;;;;;;;47.13;23.90;;;-1.40;1.00;;;;;;5006090;28;20672;-86
2023/01/21 04:41:24;;;;;;;48.07;23.63;;;-1.40;1.00;;;;;;5012332;28;20691;-87
2023/01/21 04:43:50;;;;;;;42.47;23.37;;;-1.40;1.00;;;;;;5013575;28;20663;-86
2023/01/21 04:46:16;;;;;;;47.53;22.90;;;-1.40;1.00;;;;;;5007112;28;20537;-87
2023/01/21 04:48:41;;;;;;;48.00;23.83;;;-1.40;1.00;;;;;;5006742;28;20868;-86
2023/01/21 04:51:07;;;;;;;56.40;24.17;;;-1.40;1.00;;;;;;5007463;28;20490;-86
2023/01/21 04:53:33;;;;;;;50.93;26.70;;;-1.40;1.00;;;;;;5010884;28;20229;-87
2023/01/21 04:55:58;;;;;;;48.30;24.17;;;-1.40;1.00;;;;;;5002974;28;20190;-86
2023/01/21 04:58:25;;;;;;;42.23;22.37;;;-1.40;1.00;;;;;;5008912;28;20202;-86
2023/01/21 05:00:52;;;;;;;52.13;23.27;;;-1.40;1.00;;;;;;5002530;28;20287;-87
2023/01/21 05:03:18;;;;;;;52.15;22.55;;;-1.40;1.00;;;;;;5004445;28;20217;-86
2023/01/21 05:05:43;;;;;;;56.10;27.10;;;-1.40;1.00;;;;;;5012281;28;20639;-87
2023/01/21 05:08:09;;;;;;;49.23;25.23;;;-1.40;1.00;;;;;;4997955;28;20200;-86
2023/01/21 05:10:34;;;;;;;47.03;23.10;;;-1.40;1.00;;;;;;5011799;28;20167;-87
2023/01/21 05:13:00;;;;;;;45.67;23.70;;;-1.40;1.00;;;;;;5013520;28;20545;-86
2023/01/21 05:15:25;;;;;;;43.17;21.90;;;-1.40;1.00;;;;;;5001708;28;20184;-88
2023/01/21 05:17:51;;;;;;;51.53;22.93;;;-1.50;1.00;;;;;;5007056;28;20175;-87
2023/01/21 05:20:16;;;;;;;50.90;25.43;;;-1.40;1.00;;;;;;5013684;28;20261;-87
2023/01/21 05:22:46;;;;;;;46.70;23.23;;;-1.40;1.00;;;;;;5013920;28;20295;-89
2023/01/21 05:25:11;;;;;;;47.45;23.70;;;-1.50;1.00;;;;;;5012099;28;20191;-87
2023/01/21 05:27:37;;;;;;;49.03;23.63;;;-1.50;1.00;;;;;;5004898;28;20190;-88
2023/01/21 05:30:03;;;;;;;48.70;23.67;;;-1.50;1.00;;;;;;5002434;28;20187;-87
2023/01/21 05:32:28;;;;;;;46.37;24.27;;;-1.60;1.00;;;;;;5003253;28;20206;-87
2023/01/21 05:34:54;;;;;;;49.80;22.83;;;-1.60;1.00;;;;;;5005468;28;20438;-87
2023/01/21 05:37:19;;;;;;;49.00;23.83;;;-1.60;1.00;;;;;;5012789;28;20878;-87
2023/01/21 05:39:45;;;;;;;51.17;24.00;;;-1.60;1.00;;;;;;5013461;28;20261;-87
2023/01/21 05:42:10;;;;;;;57.97;26.00;;;-1.60;1.00;;;;;;5003970;28;20206;-88
2023/01/21 05:44:36;;;;;;;48.20;25.10;;;-1.50;1.00;;;;;;5009236;28;20179;-87
2023/01/21 05:47:01;;;;;;;47.73;22.60;;;-1.50;1.00;;;;;;5010843;28;20736;-88
2023/01/21 05:49:27;;;;;;;41.30;21.50;;;-1.50;1.00;;;;;;5010643;28;20226;-89
2023/01/21 05:51:53;;;;;;;46.90;23.67;;;-1.50;1.00;;;;;;5015523;28;20660;-88
2023/01/21 05:54:21;;;;;;;50.47;24.73;;;-1.50;1.00;;;;;;5001106;28;20722;-88
2023/01/21 05:56:46;;;;;;;42.97;22.92;;;-1.50;1.00;;;;;;4996967;28;20233;-89
2023/01/21 05:59:12;;;;;;;45.43;22.93;;;-1.50;1.00;;;;;;5006295;28;20633;-87
2023/01/21 06:01:37;;;;;;;45.10;24.93;;;-1.50;1.00;;;;;;5009796;28;20257;-88
2023/01/21 06:04:03;;;;;;;45.77;24.30;;;-1.60;1.00;;;;;;5007978;28;20194;-88
2023/01/21 06:06:28;;;;;;;44.90;24.23;;;-1.60;1.00;;;;;;5007253;28;20237;-87
2023/01/21 06:08:54;;;;;;;49.40;22.67;;;-1.70;1.00;;;;;;5000969;28;20194;-88
2023/01/21 06:11:19;;;;;;;46.87;22.80;;;-1.70;1.00;;;;;;5011518;28;20179;-88
2023/01/21 06:13:45;;;;;;;58.53;27.10;;;-1.70;1.00;;;;;;5011780;28;20700;-87
2023/01/21 06:16:10;;;;;;;50.07;25.87;;;-1.80;1.00;;;;;;5008074;28;20189;-88
2023/01/21 06:18:36;;;;;;;48.93;25.07;;;-1.80;1.00;;;;;;5006466;28;20704;-88
2023/01/21 06:21:02;;;;;;;47.20;24.10;;;-1.80;1.00;;;;;;5013171;28;20535;-88
2023/01/21 06:23:27;;;;;;;47.93;23.00;;;-1.80;1.00;;;;;;5004918;28;20233;-87
2023/01/21 06:25:57;;;;;;;50.83;25.00;;;-1.80;1.00;;;;;;5009150;28;20656;-88
2023/01/21 06:28:22;;;;;;;39.85;22.88;;;-1.80;1.00;;;;;;5007234;28;20195;-88
2023/01/21 06:30:48;;;;;;;50.13;23.33;;;-1.80;1.00;;;;;;5013543;28;20540;-87
2023/01/21 06:33:13;;;;;;;47.17;23.87;;;-1.80;1.00;;;;;;5009494;28;20206;-88
2023/01/21 06:35:39;;;;;;;52.33;24.00;;;-1.80;1.00;;;;;;4998484;28;20706;-88
2023/01/21 06:38:05;;;;;;;46.87;24.53;;;-1.70;1.00;;;;;;5013053;28;20224;-87
2023/01/21 06:40:30;;;;;;;42.60;22.47;;;-1.70;1.00;;;;;;5005799;28;20266;-88
2023/01/21 06:42:56;;;;;;;44.63;22.67;;;-1.70;1.00;;;;;;5006011;28;20204;-89
2023/01/21 06:45:21;;;;;;;48.17;23.50;;;-1.70;1.00;;;;;;5012401;28;20183;-87
2023/01/21 06:47:47;;;;;;;45.40;22.23;;;-1.70;1.00;;;;;;5010660;28;20186;-88
2023/01/21 06:50:49;;;;;;;;;;;;;;;;;;;;;
2023/01/21 06:53:15;;;;;;;48.33;23.98;;;-1.70;1.00;;;;;;5006065;28;20520;-88
2023/01/21 06:55:40;;;;;;;45.57;21.80;;;-1.70;1.00;;;;;;5003571;28;20185;-89
2023/01/21 06:58:06;;;;;;;44.97;22.70;;;-1.70;1.00;;;;;;5010586;28;20273;-88
2023/01/21 07:00:31;;;;;;;47.50;23.70;;;-1.70;1.00;;;;;;5008536;28;20179;-88
2023/01/21 07:02:58;;;;;;;48.70;23.50;;;-1.70;1.00;;;;;;4999457;28;20223;-88
2023/01/21 07:05:24;;;;;;;44.75;22.70;;;-1.70;1.00;;;;;;5006673;28;20182;-88
2023/01/21 07:07:54;;;;;;;44.10;22.73;;;-1.70;1.00;;;;;;5004152;28;20179;-90
2023/01/21 07:10:19;;;;;;;49.88;23.35;;;-1.70;1.00;;;;;;5002985;28;20174;-90
2023/01/21 07:12:45;;;;;;;41.83;22.57;;;-1.70;1.00;;;;;;5010782;28;20665;-87
2023/01/21 07:15:10;;;;;;;50.93;23.70;;;-1.70;1.00;;;;;;5008868;28;20575;-87
2023/01/21 07:17:36;;;;;;;43.33;22.57;;;-1.70;1.00;;;;;;5010772;28;20179;-89
2023/01/21 07:20:03;;;;;;;44.50;25.07;;;-1.70;1.00;;;;;;5018753;28;20191;-87
2023/01/21 07:22:29;;;;;;;48.75;24.95;;;-1.70;1.00;;;;;;5007721;28;20199;-87
2023/01/21 07:24:55;;;;;;;47.30;25.40;;;-1.70;1.00;;;;;;5011061;28;20236;-87
2023/01/21 07:27:20;;;;;;;40.13;22.73;;;-1.60;1.00;;;;;;5007225;28;20197;-88
2023/01/21 07:29:46;;;;;;;51.40;25.30;;;-1.50;1.00;;;;;;5001457;28;20223;-87
2023/01/21 07:32:11;;;;;;;46.57;24.10;;;-1.40;1.00;;;;;;5012458;28;20199;-87
2023/01/21 07:35:01;;;;;;;47.77;24.37;;;-1.40;1.00;;;;;;5012341;28;20179;-88
2023/01/21 07:37:29;;;;;;;40.85;22.73;;;-1.30;1.00;;;;;;5002765;28;20194;-88
2023/01/21 07:39:55;;;;;;;45.50;23.40;;;-1.20;1.00;;;;;;5013018;28;20171;-87
2023/01/21 07:42:20;;;;;;;38.93;21.57;;;-1.20;1.00;;;;;;5012279;28;20709;-86
2023/01/21 07:44:46;;;;;;;44.50;21.90;;;-1.10;1.00;;;;;;5012088;28;20907;-87
2023/01/21 07:47:11;;;;;;;44.90;22.90;;;-1.00;1.00;;;;;;5002166;28;20225;-86
2023/01/21 07:49:37;;;;;;;45.13;23.53;;;-0.90;1.00;;;;;;5012545;28;20245;-87
2023/01/21 07:52:03;;;;;;;40.63;22.20;;;-0.80;99.90;;;;;;5013347;28;20186;-88
2023/01/21 07:54:28;;;;;;;45.20;23.60;;;-0.60;99.90;;;;;;5023216;28;20192;-87
2023/01/21 07:56:54;;;;;;;48.20;23.17;;;-0.50;99.90;;;;;;5010537;28;20209;-87
2023/01/21 07:59:20;;;;;;;42.23;24.00;;;-0.40;99.90;;;;;;5010802;28;20179;-87
2023/01/21 08:01:45;;;;;;;41.05;22.85;;;-0.30;99.90;;;;;;5012247;28;20178;-87
2023/01/21 08:04:11;;;;;;;43.53;22.60;;;-0.20;99.90;;;;;;5002753;28;20591;-87
2023/01/21 08:06:36;;;;;;;46.77;23.90;;;-0.10;99.90;;;;;;5011268;28;20206;-87
2023/01/21 08:09:03;;;;;;;42.63;24.33;;;0.00;99.90;;;;;;5010306;28;20210;-87
2023/01/21 08:11:28;;;;;;;47.47;24.95;;;0.10;99.90;;;;;;5019212;28;20869;-87
2023/01/21 08:13:54;;;;;;;42.57;24.80;;;0.40;99.90;;;;;;5013838;28;20186;-89
2023/01/21 08:16:19;;;;;;;45.13;23.57;;;1.10;99.90;;;;;;5013182;28;20183;-89
2023/01/21 08:18:45;;;;;;;41.73;22.10;;;1.50;59.30;;;;;;5013921;28;20179;-89
2023/01/21 08:21:10;;;;;;;47.93;23.50;;;2.30;1.00;;;;;;5005849;28;20199;-89
2023/01/21 08:23:36;;;;;;;43.30;21.83;;;2.80;99.90;;;;;;5012029;28;20199;-89
2023/01/21 08:26:04;;;;;;;41.03;23.97;;;3.20;99.90;;;;;;5014252;28;20215;-89
2023/01/21 08:28:33;;;;;;;45.08;24.02;;;3.60;1.00;;;;;;4993963;28;20203;-88
2023/01/21 08:31:07;;;;;;;40.22;23.02;;;3.60;1.00;;;;;;4993183;28;20251;-88
2023/01/21 08:33:33;;;;;;;45.38;25.75;;;3.70;99.90;;;;;;4992332;28;20199;-89
2023/01/21 08:36:00;;;;;;;39.00;23.83;;;4.30;99.90;;;;;;4993106;28;20179;-88
2023/01/21 08:38:26;;;;;;;41.35;24.77;;;5.10;1.00;;;;;;5001182;28;20620;-89
2023/01/21 08:40:51;;;;;;;45.03;24.90;;;6.10;1.00;;;;;;5016263;28;20257;-89
2023/01/21 08:43:17;;;;;;;41.17;22.60;;;7.00;78.90;;;;;;5016626;28;20618;-86
2023/01/21 08:45:42;;;;;;;40.10;25.10;;;7.70;99.90;;;;;;5008251;28;20589;-89
2023/01/21 08:48:08;;;;;;;42.00;24.33;;;8.20;1.00;;;;;;5015216;28;20213;-88
2023/01/21 08:50:33;;;;;;;35.43;24.47;;;8.70;1.00;;;;;;5015157;28;20641;-89
2023/01/21 08:52:59;;;;;;;34.37;23.93;;;9.10;1.00;;;;;;5011767;28;20202;-85
2023/01/21 08:55:27;;;;;;;38.57;26.17;;;9.40;1.00;;;;;;5010858;28;20179;-90
2023/01/21 08:57:54;;;;;;;37.40;25.37;;;9.80;1.00;;;;;;5011272;28;20190;-88
2023/01/21 09:00:21;;;;;;;36.07;25.00;;;10.10;1.00;;;;;;5017885;28;20523;-86
2023/01/21 09:02:47;;;;;;;39.10;25.97;;;10.50;1.00;;;;;;5012367;28;20508;-87
2023/01/21 09:05:12;;;;;;;37.57;26.40;;;10.70;1.00;;;;;;5011577;28;20532;-86
2023/01/21 09:07:38;;;;;;;38.33;26.20;;;11.00;1.00;;;;;;5020559;28;20187;-86
2023/01/21 09:10:04;;;;;;;38.67;26.07;;;11.30;1.00;;;;;;5023881;28;20216;-90
2023/01/21 09:12:30;;;;;;;36.37;27.03;;;11.60;1.00;;;;;;5033651;28;20260;-90
2023/01/21 09:14:56;;;;;;;38.80;26.40;;;12.00;99.90;;;;;;5032955;28;20856;-88
2023/01/21 09:17:24;;;;;;;37.77;26.13;;;12.20;99.90;;;;;;5030566;28;20429;-87
2023/01/21 09:19:50;;;;;;;35.20;26.20;;;12.50;99.90;;;;;;5034705;28;20200;-89
2023/01/21 09:22:23;;;;;;;43.27;26.60;;;12.70;99.90;;;;;;5036135;23;20588;-86
2023/01/21 09:25:09;;;;;;;37.53;27.27;;;12.90;99.90;;;;;;5037341;28;20208;-86
2023/01/21 09:27:34;;;;;;;39.10;29.07;;;12.60;99.90;;;;;;4999047;28;20528;-86
2023/01/21 09:30:00;;;;;;;33.13;24.50;;;12.00;99.90;;;;;;4997957;28;21013;-87
2023/01/21 09:32:25;;;;;;;36.30;25.37;;;11.20;99.90;;;;;;4998100;28;20286;-86
2023/01/21 09:34:51;;;;;;;40.27;27.07;;;10.60;99.90;;;;;;4996952;28;20215;-88
2023/01/21 09:37:16;;;;;;;40.40;27.03;;;10.00;99.90;;;;;;4983848;28;20279;-87
2023/01/21 09:39:42;;;;;;;37.50;25.17;;;9.60;99.90;;;;;;5000277;28;20226;-87
2023/01/21 09:42:16;;;;;;;38.47;26.77;;;9.10;99.90;;;;;;4998279;28;20250;-86
2023/01/21 09:44:46;;;;;;;42.70;26.67;;;8.40;99.90;;;;;;5004446;28;20190;-87
2023/01/21 09:47:25;;;;;;;38.50;24.92;;;7.70;99.90;;;;;;4985520;28;20520;-87
2023/01/21 09:49:54;;;;;;;45.60;26.60;;;6.90;99.90;;;;;;4999571;28;20192;-89
2023/01/21 09:52:41;;;;;;;47.60;27.65;;;6.40;99.90;;;;;;4992378;28;20200;-87
2023/01/21 09:55:16;;;;;;;47.85;26.75;;;6.00;99.90;;;;;;4982244;28;20271;-89
2023/01/21 09:58:03;;;;;;;47.42;28.38;;;5.70;99.90;;;;;;4978741;28;20187;-89
2023/01/21 10:00:47;;;;;;;45.95;26.92;;;5.30;99.90;;;;;;4995936;28;20193;-85
2023/01/21 10:03:23;;;;;;;51.72;27.60;;;5.00;99.90;;;;;;4980921;28;20255;-86
2023/01/21 10:06:18;;;;;;;51.28;27.52;;;4.80;99.90;;;;;;4988507;28;20206;-87
2023/01/21 10:09:11;;;;;;;48.72;29.65;;;4.60;1.00;;;;;;4980970;28;20205;-87
2023/01/21 10:11:58;;;;;;;48.33;26.42;;;4.60;1.00;;;;;;4993863;28;20192;-87
2023/01/21 10:14:55;;;;;;;53.35;26.17;;;4.50;1.00;;;;;;4986230;28;20189;-87
2023/01/21 10:17:27;;;;;;;45.97;24.95;;;4.50;1.00;;;;;;4981350;28;20274;-87
2023/01/21 10:20:18;;;;;;;49.92;26.08;;;4.60;1.00;;;;;;4989406;28;20829;-86
2023/01/21 10:22:53;;;;;;;47.15;25.45;;;4.60;1.00;;;;;;5000816;28;20223;-87
2023/01/21 10:25:28;;;;;;;41.70;23.65;;;4.70;1.00;;;;;;5001513;28;20179;-86
2023/01/21 10:27:58;;;;;;;43.00;25.08;;;4.60;1.00;;;;;;4998552;28;20558;-87
2023/01/21 10:30:37;;;;;;;43.13;23.75;;;4.60;1.00;;;;;;4990153;28;20172;-87
2023/01/21 10:33:05;;;;;;;46.80;23.52;;;4.60;1.00;;;;;;4993264;28;20200;-87
2023/01/21 10:35:59;;;;;;;44.78;24.25;;;4.60;1.00;;;;;;4993676;28;20646;-87
2023/01/21 10:38:37;;;;;;;43.33;24.65;;;4.60;1.00;;;;;;4993314;28;20239;-88
2023/01/21 10:41:29;;;;;;;41.85;20.92;;;4.60;1.00;;;;;;4999390;28;20195;-88
2023/01/21 10:44:23;;;;;;;40.83;24.58;;;4.50;1.00;;;;;;4991811;28;20195;-88
2023/01/21 10:47:26;;;;;;;44.55;25.30;;;4.50;1.00;;;;;;4984341;28;20702;-88
2023/01/21 10:50:13;;;;;;;44.05;23.33;;;4.60;1.00;;;;;;4990293;28;20258;-87
2023/01/21 10:52:49;;;;;;;46.35;25.27;;;4.60;1.00;;;;;;4985739;28;20282;-89
2023/01/21 10:55:42;;;;;;;43.10;23.88;;;4.50;1.00;;;;;;4990787;28;20234;-91
2023/01/21 10:58:33;;;;;;;43.83;25.58;;;4.50;1.00;;;;;;4990099;28;20182;-91
2023/01/21 11:05:18;;;;;;;38.58;23.27;;;4.70;1.00;;;;;;4981144;28;20186;-88
2023/01/21 11:07:47;;;;;;;43.90;23.42;;;4.80;1.00;;;;;;4983689;28;20266;-88
2023/01/21 11:10:19;;;;;;;45.65;24.33;;;4.70;1.00;;;;;;5008903;28;20198;-88
2023/01/21 11:13:00;;;;;;;42.30;24.55;;;4.70;1.00;;;;;;4990273;28;20196;-88
2023/01/21 11:15:30;;;;;;;37.55;21.23;;;4.70;1.00;;;;;;4994976;28;20261;-88
2023/01/21 11:17:57;;;;;;;44.17;22.55;;;4.70;1.00;;;;;;4985157;28;20803;-88
2023/01/21 11:20:31;;;;;;;45.50;25.52;;;4.70;1.00;;;;;;4991155;28;20175;-88
2023/01/21 11:22:56;;;;;;;43.63;25.02;;;4.60;1.00;;;;;;4991284;28;20537;-88
2023/01/21 11:26:02;;;;;;;47.70;29.27;;;4.70;1.00;;;;;;4998673;28;20467;-90
2023/01/21 11:28:44;;;;;;;40.45;24.52;;;4.70;1.00;;;;;;5013444;28;20202;-89
2023/01/21 11:31:42;;;;;;;49.88;24.55;;;4.80;1.00;;;;;;5009715;28;20213;-90
2023/01/21 11:34:42;;;;;;;41.42;23.17;;;4.70;1.00;;;;;;5007391;28;20274;-89
2023/01/21 11:37:24;;;;;;;42.25;24.38;;;4.70;1.00;;;;;;4991094;28;20199;-89
2023/01/21 11:39:54;;;;;;;46.28;23.38;;;4.70;1.00;;;;;;5016068;28;20673;-87
2023/01/21 11:42:20;;;;;;;38.10;22.42;;;4.60;1.00;;;;;;5003902;28;20216;-88
2023/01/21 11:44:53;;;;;;;46.50;24.95;;;4.60;1.00;;;;;;5029121;28;20185;-89
2023/01/21 11:47:37;;;;;;;45.28;24.67;;;4.60;1.00;;;;;;5018072;28;20203;-88
2023/01/21 11:50:27;;;;;;;46.80;23.70;;;4.60;1.00;;;;;;5006201;28;20219;-91
2023/01/21 11:53:13;;;;;;;47.78;27.90;;;4.60;9.50;;;;;;4998997;28;20215;-91
2023/01/21 11:55:49;;;;;;;42.95;24.25;;;4.70;19.10;;;;;;5004718;28;20184;-91
2023/01/21 11:58:17;;;;;;;42.50;24.42;;;4.70;34.70;;;;;;5002969;28;20206;-91
2023/01/21 12:00:46;;;;;;;42.08;22.83;;;4.60;25.20;;;;;;5001359;28;20187;-91
2023/01/21 12:03:16;;;;;;;42.58;24.77;;;4.60;35.90;;;;;;4989877;28;20281;-91
2023/01/21 12:05:46;;;;;;;41.63;23.10;;;4.60;36.60;;;;;;5008531;28;20278;-91
2023/01/21 12:08:26;;;;;;;42.88;22.90;;;4.70;48.80;;;;;;5002873;28;20287;-90
2023/01/21 12:10:54;;;;;;;41.50;22.30;;;4.80;78.90;;;;;;4988748;28;20179;-90
2023/01/21 12:13:38;;;;;;;43.60;24.30;;;4.80;78.10;;;;;;4992002;28;20191;-90
2023/01/21 12:16:22;;;;;;;40.10;22.92;;;4.90;75.20;;;;;;5009607;28;20217;-90
2023/01/21 12:19:09;;;;;;;38.35;21.70;;;5.00;79.80;;;;;;4988908;28;20196;-90
2023/01/21 12:21:44;;;;;;;43.65;22.65;;;5.10;26.30;;;;;;4975268;28;20669;-89
2023/01/21 12:24:34;;;;;;;38.20;21.65;;;5.20;26.60;;;;;;4979367;28;20187;-89
2023/01/21 12:27:10;;;;;;;42.58;23.30;;;5.50;16.90;;;;;;4979804;28;20176;-90
2023/01/21 12:29:49;;;;;;;38.15;20.65;;;5.70;1.00;;;;;;4982743;28;20278;-90
2023/01/21 12:32:38;;;;;;;38.80;20.98;;;5.90;1.00;;;;;;4993236;28;20187;-90
2023/01/21 12:35:22;;;;;;;40.72;21.85;;;6.00;1.00;;;;;;4985540;28;20525;-90
2023/01/21 12:37:59;;;;;;;39.10;23.50;;;6.20;1.00;;;;;;4995320;28;20207;-90
2023/01/21 12:40:32;;;;;;;46.13;22.25;;;6.20;1.00;;;;;;4996204;28;20189;-91
2023/01/21 12:43:06;;;;;;;39.08;22.02;;;6.30;1.00;;;;;;4992924;28;20203;-91
2023/01/21 12:45:38;;;;;;;35.20;20.13;;;6.30;1.00;;;;;;4993265;28;20191;-91
2023/01/21 12:48:10;;;;;;;42.13;22.45;;;6.30;1.00;;;;;;4991522;28;20192;-91
2023/01/21 12:50:40;;;;;;;41.35;21.38;;;6.30;1.00;;;;;;4991426;28;20188;-91
2023/01/21 12:53:13;;;;;;;33.00;19.52;;;6.40;1.00;;;;;;4986733;28;20208;-91
2023/01/21 12:56:25;;;;;;;38.88;23.67;;;6.50;1.00;;;;;;4990447;28;20183;-91
2023/01/21 12:58:53;;;;;;;39.45;21.42;;;6.50;1.00;;;;;;4993283;28;20610;-91
2023/01/21 13:01:53;;;;;;;44.65;26.58;;;6.50;1.00;;;;;;4995606;28;20187;-89
2023/01/21 13:04:58;;;;;;;49.78;27.08;;;6.60;1.00;;;;;;5004405;28;20222;-90
2023/01/21 13:08:02;;;;;;;38.28;23.35;;;6.60;1.00;;;;;;4990682;28;20183;-91
2023/01/21 13:10:33;;;;;;;40.47;22.20;;;6.70;1.00;;;;;;4995028;28;20189;-91